sensor_id;sensor_type;location;lat;lon;timestamp;P1;durP1;ratioP1;P2;durP2;ratioP2
12476;SDS011;6303;51.504;6.300;2023-05-10T00:02:14;1.38;;;1.27;;
12476;SDS011;6303;51.504;6.300;2023-05-10T00:04:41;1.35;;;1.25;;
12476;SDS011;6303;51.504;6.300;2023-05-10T00:07:10;1.40;;;1.30;;
12476;SDS011;6303;51.504;6.300;2023-05-10T00:09:37;1.27;;;1.20;;
12476;SDS011;6303;51.504;6.300;2023-05-10T00:12:04;1.25;;;1.20;;
12476;SDS011;6303;51.504;6.300;2023-05-10T00:14:31;1.40;;;1.30;;
12476;SDS011;6303;51.504;6.300;2023-05-10T00:16:58;1.30;;;1.20;;
12476;SDS011;6303;51.504;6.300;2023-05-10T00:19:25;1.83;;;1.20;;
12476;SDS011;6303;51.504;6.300;2023-05-10T00:21:52;1.30;;;1.30;;
12476;SDS011;6303;51.504;6.300;2023-05-10T00:24:21;1.20;;;1.20;;
12476;SDS011;6303;51.504;6.300;2023-05-10T00:26:48;1.40;;;1.30;;
12476;SDS011;6303;51.504;6.300;2023-05-10T00:29:15;1.20;;;1.20;;
12476;SDS011;6303;51.504;6.300;2023-05-10T00:31:42;1.40;;;1.30;;
12476;SDS011;6303;51.504;6.300;2023-05-10T00:34:09;1.40;;;1.30;;
12476;SDS011;6303;51.504;6.300;2023-05-10T00:36:36;1.60;;;1.50;;
12476;SDS011;6303;51.504;6.300;2023-05-10T00:39:03;1.27;;;1.27;;
12476;SDS011;6303;51.504;6.300;2023-05-10T00:41:31;1.40;;;1.30;;
12476;SDS011;6303;51.504;6.300;2023-05-10T00:44:00;1.10;;;1.10;;
12476;SDS011;6303;51.504;6.300;2023-05-10T00:46:28;1.30;;;1.30;;
12476;SDS011;6303;51.504;6.300;2023-05-10T00:48:55;1.30;;;1.27;;
12476;SDS011;6303;51.504;6.300;2023-05-10T00:51:22;1.33;;;1.23;;
12476;SDS011;6303;51.504;6.300;2023-05-10T00:53:50;1.25;;;1.25;;
12476;SDS011;6303;51.504;6.300;2023-05-10T00:56:18;1.35;;;1.25;;
12476;SDS011;6303;51.504;6.300;2023-05-10T00:58:49;1.30;;;1.30;;
12476;SDS011;6303;51.504;6.300;2023-05-10T01:01:16;1.45;;;1.38;;
12476;SDS011;6303;51.504;6.300;2023-05-10T01:03:43;1.58;;;1.48;;
12476;SDS011;6303;51.504;6.300;2023-05-10T01:06:12;1.52;;;1.42;;
12476;SDS011;6303;51.504;6.300;2023-05-10T01:08:39;1.17;;;1.17;;
12476;SDS011;6303;51.504;6.300;2023-05-10T01:11:06;1.20;;;1.20;;
12476;SDS011;6303;51.504;6.300;2023-05-10T01:13:34;1.80;;;1.30;;
12476;SDS011;6303;51.504;6.300;2023-05-10T01:16:05;1.40;;;1.30;;
12476;SDS011;6303;51.504;6.300;2023-05-10T01:18:33;1.40;;;1.30;;
12476;SDS011;6303;51.504;6.300;2023-05-10T01:21:09;1.50;;;1.40;;
12476;SDS011;6303;51.504;6.300;2023-05-10T01:26:45;1.23;;;1.23;;
12476;SDS011;6303;51.504;6.300;2023-05-10T01:29:47;1.40;;;1.30;;
12476;SDS011;6303;51.504;6.300;2023-05-10T01:32:38;1.40;;;1.30;;
12476;SDS011;6303;51.504;6.300;2023-05-10T01:35:10;1.40;;;1.30;;
12476;SDS011;6303;51.504;6.300;2023-05-10T01:37:45;1.50;;;1.40;;
12476;SDS011;6303;51.504;6.300;2023-05-10T01:40:17;1.52;;;1.40;;
12476;SDS011;6303;51.504;6.300;2023-05-10T01:42:50;1.60;;;1.50;;
12476;SDS011;6303;51.504;6.300;2023-05-10T01:45:24;1.50;;;1.40;;
12476;SDS011;6303;51.504;6.300;2023-05-10T01:48:02;1.40;;;1.30;;
12476;SDS011;6303;51.504;6.300;2023-05-10T01:50:32;1.42;;;1.33;;
12476;SDS011;6303;51.504;6.300;2023-05-10T01:53:05;1.25;;;1.25;;
12476;SDS011;6303;51.504;6.300;2023-05-10T01:55:38;1.50;;;1.40;;
12476;SDS011;6303;51.504;6.300;2023-05-10T01:58:11;1.40;;;1.40;;
12476;SDS011;6303;51.504;6.300;2023-05-10T02:00:40;1.27;;;1.27;;
12476;SDS011;6303;51.504;6.300;2023-05-10T02:03:12;1.40;;;1.30;;
12476;SDS011;6303;51.504;6.300;2023-05-10T02:05:41;1.33;;;1.27;;
12476;SDS011;6303;51.504;6.300;2023-05-10T02:08:11;1.38;;;1.38;;
12476;SDS011;6303;51.504;6.300;2023-05-10T02:10:40;1.30;;;1.20;;
12476;SDS011;6303;51.504;6.300;2023-05-10T02:13:09;1.50;;;1.40;;
12476;SDS011;6303;51.504;6.300;2023-05-10T02:15:37;1.40;;;1.30;;
12476;SDS011;6303;51.504;6.300;2023-05-10T02:18:06;1.48;;;1.42;;
12476;SDS011;6303;51.504;6.300;2023-05-10T02:20:36;1.15;;;1.15;;
12476;SDS011;6303;51.504;6.300;2023-05-10T02:23:05;1.40;;;1.30;;
12476;SDS011;6303;51.504;6.300;2023-05-10T02:25:35;1.42;;;1.33;;
12476;SDS011;6303;51.504;6.300;2023-05-10T02:28:04;1.33;;;1.23;;
12476;SDS011;6303;51.504;6.300;2023-05-10T02:30:34;1.35;;;1.35;;
12476;SDS011;6303;51.504;6.300;2023-05-10T02:33:03;1.33;;;1.30;;
12476;SDS011;6303;51.504;6.300;2023-05-10T02:35:31;1.42;;;1.30;;
12476;SDS011;6303;51.504;6.300;2023-05-10T02:38:02;1.45;;;1.35;;
12476;SDS011;6303;51.504;6.300;2023-05-10T02:40:30;1.35;;;1.30;;
12476;SDS011;6303;51.504;6.300;2023-05-10T02:42:59;1.25;;;1.25;;
12476;SDS011;6303;51.504;6.300;2023-05-10T02:45:30;1.63;;;1.27;;
12476;SDS011;6303;51.504;6.300;2023-05-10T02:47:58;1.45;;;1.35;;
12476;SDS011;6303;51.504;6.300;2023-05-10T02:50:27;1.30;;;1.30;;
12476;SDS011;6303;51.504;6.300;2023-05-10T02:53:00;1.50;;;1.40;;
12476;SDS011;6303;51.504;6.300;2023-05-10T02:55:34;1.50;;;1.40;;
12476;SDS011;6303;51.504;6.300;2023-05-10T02:58:04;1.52;;;1.42;;
12476;SDS011;6303;51.504;6.300;2023-05-10T03:00:32;1.40;;;1.40;;
12476;SDS011;6303;51.504;6.300;2023-05-10T03:03:00;1.50;;;1.40;;
12476;SDS011;6303;51.504;6.300;2023-05-10T03:05:27;1.50;;;1.40;;
12476;SDS011;6303;51.504;6.300;2023-05-10T03:07:58;1.60;;;1.50;;
12476;SDS011;6303;51.504;6.300;2023-05-10T03:10:30;1.30;;;1.30;;
12476;SDS011;6303;51.504;6.300;2023-05-10T03:13:06;1.38;;;1.38;;
12476;SDS011;6303;51.504;6.300;2023-05-10T03:15:42;1.50;;;1.40;;
12476;SDS011;6303;51.504;6.300;2023-05-10T03:18:15;1.33;;;1.27;;
12476;SDS011;6303;51.504;6.300;2023-05-10T03:20:47;1.40;;;1.30;;
12476;SDS011;6303;51.504;6.300;2023-05-10T03:23:20;1.58;;;1.48;;
12476;SDS011;6303;51.504;6.300;2023-05-10T03:25:54;1.70;;;1.60;;
12476;SDS011;6303;51.504;6.300;2023-05-10T03:28:22;1.60;;;1.50;;
12476;SDS011;6303;51.504;6.300;2023-05-10T03:30:53;1.50;;;1.40;;
12476;SDS011;6303;51.504;6.300;2023-05-10T03:33:20;1.70;;;1.60;;
12476;SDS011;6303;51.504;6.300;2023-05-10T03:35:48;1.60;;;1.50;;
12476;SDS011;6303;51.504;6.300;2023-05-10T03:38:15;1.60;;;1.50;;
12476;SDS011;6303;51.504;6.300;2023-05-10T03:40:42;1.45;;;1.40;;
12476;SDS011;6303;51.504;6.300;2023-05-10T03:43:11;1.30;;;1.30;;
12476;SDS011;6303;51.504;6.300;2023-05-10T03:45:38;1.60;;;1.50;;
12476;SDS011;6303;51.504;6.300;2023-05-10T03:48:05;3.08;;;1.80;;
12476;SDS011;6303;51.504;6.300;2023-05-10T03:50:32;2.38;;;1.80;;
12476;SDS011;6303;51.504;6.300;2023-05-10T03:52:59;2.33;;;2.13;;
12476;SDS011;6303;51.504;6.300;2023-05-10T03:55:27;2.33;;;2.10;;
12476;SDS011;6303;51.504;6.300;2023-05-10T03:57:55;3.72;;;2.72;;
12476;SDS011;6303;51.504;6.300;2023-05-10T04:00:24;8.77;;;4.30;;
12476;SDS011;6303;51.504;6.300;2023-05-10T04:02:54;22.75;;;10.18;;
12476;SDS011;6303;51.504;6.300;2023-05-10T04:05:22;24.77;;;12.10;;
12476;SDS011;6303;51.504;6.300;2023-05-10T04:07:51;22.98;;;12.00;;
12476;SDS011;6303;51.504;6.300;2023-05-10T04:10:18;22.60;;;11.55;;
12476;SDS011;6303;51.504;6.300;2023-05-10T04:12:45;18.45;;;10.93;;
12476;SDS011;6303;51.504;6.300;2023-05-10T04:15:13;16.75;;;10.25;;
12476;SDS011;6303;51.504;6.300;2023-05-10T04:17:41;17.60;;;10.80;;
12476;SDS011;6303;51.504;6.300;2023-05-10T04:20:08;16.88;;;11.10;;
12476;SDS011;6303;51.504;6.300;2023-05-10T04:22:36;16.90;;;10.77;;
12476;SDS011;6303;51.504;6.300;2023-05-10T04:25:04;15.43;;;9.90;;
12476;SDS011;6303;51.504;6.300;2023-05-10T04:27:32;14.82;;;9.90;;
12476;SDS011;6303;51.504;6.300;2023-05-10T04:29:59;15.38;;;10.40;;
12476;SDS011;6303;51.504;6.300;2023-05-10T04:32:26;15.43;;;10.20;;
12476;SDS011;6303;51.504;6.300;2023-05-10T04:34:54;14.57;;;10.52;;
12476;SDS011;6303;51.504;6.300;2023-05-10T04:37:21;15.95;;;10.20;;
12476;SDS011;6303;51.504;6.300;2023-05-10T04:39:48;13.55;;;9.75;;
12476;SDS011;6303;51.504;6.300;2023-05-10T04:42:15;15.73;;;10.25;;
12476;SDS011;6303;51.504;6.300;2023-05-10T04:44:42;13.32;;;10.35;;
12476;SDS011;6303;51.504;6.300;2023-05-10T04:47:09;15.70;;;10.98;;
12476;SDS011;6303;51.504;6.300;2023-05-10T04:49:38;23.15;;;11.27;;
12476;SDS011;6303;51.504;6.300;2023-05-10T04:52:06;12.43;;;10.45;;
12476;SDS011;6303;51.504;6.300;2023-05-10T04:54:33;16.85;;;11.93;;
12476;SDS011;6303;51.504;6.300;2023-05-10T04:57:00;12.40;;;10.48;;
12476;SDS011;6303;51.504;6.300;2023-05-10T04:59:27;16.05;;;11.50;;
12476;SDS011;6303;51.504;6.300;2023-05-10T05:01:54;18.52;;;11.40;;
12476;SDS011;6303;51.504;6.300;2023-05-10T05:04:21;21.25;;;12.25;;
12476;SDS011;6303;51.504;6.300;2023-05-10T05:06:49;15.73;;;11.80;;
12476;SDS011;6303;51.504;6.300;2023-05-10T05:09:17;15.43;;;12.40;;
12476;SDS011;6303;51.504;6.300;2023-05-10T05:11:45;16.70;;;11.77;;
12476;SDS011;6303;51.504;6.300;2023-05-10T05:14:12;16.02;;;12.55;;
12476;SDS011;6303;51.504;6.300;2023-05-10T05:16:39;18.77;;;13.55;;
12476;SDS011;6303;51.504;6.300;2023-05-10T05:19:06;15.20;;;12.80;;
12476;SDS011;6303;51.504;6.300;2023-05-10T05:21:33;17.55;;;12.32;;
12476;SDS011;6303;51.504;6.300;2023-05-10T05:24:00;14.82;;;12.98;;
12476;SDS011;6303;51.504;6.300;2023-05-10T05:26:28;15.98;;;12.70;;
12476;SDS011;6303;51.504;6.300;2023-05-10T05:28:55;16.63;;;13.93;;
12476;SDS011;6303;51.504;6.300;2023-05-10T05:31:22;16.25;;;13.70;;
12476;SDS011;6303;51.504;6.300;2023-05-10T05:33:49;16.73;;;13.48;;
12476;SDS011;6303;51.504;6.300;2023-05-10T05:36:16;17.20;;;14.23;;
12476;SDS011;6303;51.504;6.300;2023-05-10T05:38:43;17.00;;;14.38;;
12476;SDS011;6303;51.504;6.300;2023-05-10T05:41:10;19.10;;;14.88;;
12476;SDS011;6303;51.504;6.300;2023-05-10T05:43:39;16.88;;;13.90;;
12476;SDS011;6303;51.504;6.300;2023-05-10T05:46:06;17.10;;;14.43;;
12476;SDS011;6303;51.504;6.300;2023-05-10T05:48:33;17.52;;;14.55;;
12476;SDS011;6303;51.504;6.300;2023-05-10T05:51:00;17.55;;;14.65;;
12476;SDS011;6303;51.504;6.300;2023-05-10T05:53:27;19.67;;;14.88;;
12476;SDS011;6303;51.504;6.300;2023-05-10T05:55:54;19.13;;;15.77;;
12476;SDS011;6303;51.504;6.300;2023-05-10T05:58:23;18.17;;;14.98;;
12476;SDS011;6303;51.504;6.300;2023-05-10T06:00:52;18.45;;;15.50;;
12476;SDS011;6303;51.504;6.300;2023-05-10T06:03:19;19.63;;;15.77;;
12476;SDS011;6303;51.504;6.300;2023-05-10T06:05:46;18.13;;;14.93;;
12476;SDS011;6303;51.504;6.300;2023-05-10T06:08:13;18.42;;;15.93;;
12476;SDS011;6303;51.504;6.300;2023-05-10T06:10:40;19.83;;;15.52;;
12476;SDS011;6303;51.504;6.300;2023-05-10T06:13:07;18.65;;;15.95;;
12476;SDS011;6303;51.504;6.300;2023-05-10T06:15:35;20.25;;;16.42;;
12476;SDS011;6303;51.504;6.300;2023-05-10T06:18:03;21.25;;;15.82;;
12476;SDS011;6303;51.504;6.300;2023-05-10T06:20:31;17.85;;;15.55;;
12476;SDS011;6303;51.504;6.300;2023-05-10T06:22:58;19.02;;;15.93;;
12476;SDS011;6303;51.504;6.300;2023-05-10T06:25:25;19.08;;;16.02;;
12476;SDS011;6303;51.504;6.300;2023-05-10T06:27:52;19.40;;;15.88;;
12476;SDS011;6303;51.504;6.300;2023-05-10T06:30:22;22.83;;;16.58;;
12476;SDS011;6303;51.504;6.300;2023-05-10T06:32:52;20.08;;;16.40;;
12476;SDS011;6303;51.504;6.300;2023-05-10T06:35:21;18.77;;;15.52;;
12476;SDS011;6303;51.504;6.300;2023-05-10T06:37:48;19.67;;;16.00;;
12476;SDS011;6303;51.504;6.300;2023-05-10T06:40:15;21.95;;;15.85;;
12476;SDS011;6303;51.504;6.300;2023-05-10T06:42:43;20.35;;;16.38;;
12476;SDS011;6303;51.504;6.300;2023-05-10T06:45:11;20.45;;;15.95;;
12476;SDS011;6303;51.504;6.300;2023-05-10T06:47:39;22.15;;;17.40;;
12476;SDS011;6303;51.504;6.300;2023-05-10T06:50:07;19.75;;;16.38;;
12476;SDS011;6303;51.504;6.300;2023-05-10T06:52:36;20.65;;;16.75;;
12476;SDS011;6303;51.504;6.300;2023-05-10T06:55:04;21.95;;;17.60;;
12476;SDS011;6303;51.504;6.300;2023-05-10T06:57:32;22.80;;;16.98;;
12476;SDS011;6303;51.504;6.300;2023-05-10T06:59:59;22.35;;;16.83;;
12476;SDS011;6303;51.504;6.300;2023-05-10T07:02:26;20.70;;;16.65;;
12476;SDS011;6303;51.504;6.300;2023-05-10T07:04:53;21.60;;;16.60;;
12476;SDS011;6303;51.504;6.300;2023-05-10T07:07:20;20.73;;;16.73;;
12476;SDS011;6303;51.504;6.300;2023-05-10T07:09:48;22.63;;;16.85;;
12476;SDS011;6303;51.504;6.300;2023-05-10T07:12:16;21.88;;;16.40;;
12476;SDS011;6303;51.504;6.300;2023-05-10T07:14:43;21.23;;;16.27;;
12476;SDS011;6303;51.504;6.300;2023-05-10T07:17:10;20.67;;;16.40;;
12476;SDS011;6303;51.504;6.300;2023-05-10T07:19:37;22.35;;;17.10;;
12476;SDS011;6303;51.504;6.300;2023-05-10T07:22:04;20.40;;;16.45;;
12476;SDS011;6303;51.504;6.300;2023-05-10T07:24:31;23.42;;;16.75;;
12476;SDS011;6303;51.504;6.300;2023-05-10T07:27:00;21.30;;;16.80;;
12476;SDS011;6303;51.504;6.300;2023-05-10T07:29:27;19.15;;;16.20;;
12476;SDS011;6303;51.504;6.300;2023-05-10T07:31:54;22.67;;;17.45;;
12476;SDS011;6303;51.504;6.300;2023-05-10T07:34:21;23.13;;;16.92;;
12476;SDS011;6303;51.504;6.300;2023-05-10T07:36:48;22.63;;;17.10;;
12476;SDS011;6303;51.504;6.300;2023-05-10T07:39:15;22.17;;;16.73;;
12476;SDS011;6303;51.504;6.300;2023-05-10T07:41:43;20.45;;;17.25;;
12476;SDS011;6303;51.504;6.300;2023-05-10T07:44:11;22.00;;;17.58;;
12476;SDS011;6303;51.504;6.300;2023-05-10T07:46:38;21.88;;;16.60;;
12476;SDS011;6303;51.504;6.300;2023-05-10T07:49:05;21.27;;;16.70;;
12476;SDS011;6303;51.504;6.300;2023-05-10T07:51:32;19.27;;;15.75;;
12476;SDS011;6303;51.504;6.300;2023-05-10T07:53:59;20.13;;;16.27;;
12476;SDS011;6303;51.504;6.300;2023-05-10T07:56:28;20.00;;;15.18;;
12476;SDS011;6303;51.504;6.300;2023-05-10T07:58:57;22.50;;;17.08;;
12476;SDS011;6303;51.504;6.300;2023-05-10T08:01:26;19.20;;;15.60;;
12476;SDS011;6303;51.504;6.300;2023-05-10T08:03:56;19.10;;;14.63;;
12476;SDS011;6303;51.504;6.300;2023-05-10T08:06:23;20.00;;;15.73;;
12476;SDS011;6303;51.504;6.300;2023-05-10T08:08:51;20.63;;;15.23;;
12476;SDS011;6303;51.504;6.300;2023-05-10T08:11:19;19.42;;;14.52;;
12476;SDS011;6303;51.504;6.300;2023-05-10T08:13:47;21.17;;;14.57;;
12476;SDS011;6303;51.504;6.300;2023-05-10T08:16:14;20.90;;;13.63;;
12476;SDS011;6303;51.504;6.300;2023-05-10T08:18:43;20.17;;;13.85;;
12476;SDS011;6303;51.504;6.300;2023-05-10T08:21:11;19.63;;;13.75;;
12476;SDS011;6303;51.504;6.300;2023-05-10T08:23:39;18.70;;;13.43;;
12476;SDS011;6303;51.504;6.300;2023-05-10T08:26:06;17.67;;;13.38;;
12476;SDS011;6303;51.504;6.300;2023-05-10T08:28:33;17.40;;;13.45;;
12476;SDS011;6303;51.504;6.300;2023-05-10T08:31:00;19.90;;;13.27;;
12476;SDS011;6303;51.504;6.300;2023-05-10T08:33:27;19.27;;;13.00;;
12476;SDS011;6303;51.504;6.300;2023-05-10T08:35:55;16.35;;;13.02;;
12476;SDS011;6303;51.504;6.300;2023-05-10T08:38:22;17.92;;;13.07;;
12476;SDS011;6303;51.504;6.300;2023-05-10T08:40:50;17.55;;;12.50;;
12476;SDS011;6303;51.504;6.300;2023-05-10T08:43:24;15.98;;;12.82;;
12476;SDS011;6303;51.504;6.300;2023-05-10T08:45:54;15.90;;;12.55;;
12476;SDS011;6303;51.504;6.300;2023-05-10T08:48:22;17.98;;;12.80;;
12476;SDS011;6303;51.504;6.300;2023-05-10T08:50:52;16.40;;;12.38;;
12476;SDS011;6303;51.504;6.300;2023-05-10T08:53:21;16.38;;;13.07;;
12476;SDS011;6303;51.504;6.300;2023-05-10T08:55:52;13.63;;;11.50;;
12476;SDS011;6303;51.504;6.300;2023-05-10T08:58:19;14.45;;;11.13;;
12476;SDS011;6303;51.504;6.300;2023-05-10T09:00:48;13.63;;;10.82;;
12476;SDS011;6303;51.504;6.300;2023-05-10T09:03:16;12.60;;;10.50;;
12476;SDS011;6303;51.504;6.300;2023-05-10T09:05:45;12.77;;;10.50;;
12476;SDS011;6303;51.504;6.300;2023-05-10T09:08:12;12.02;;;10.13;;
12476;SDS011;6303;51.504;6.300;2023-05-10T09:10:42;13.63;;;10.05;;
12476;SDS011;6303;51.504;6.300;2023-05-10T09:13:12;12.73;;;9.85;;
12476;SDS011;6303;51.504;6.300;2023-05-10T09:15:43;11.02;;;9.20;;
12476;SDS011;6303;51.504;6.300;2023-05-10T09:18:11;12.57;;;9.65;;
12476;SDS011;6303;51.504;6.300;2023-05-10T09:20:39;13.43;;;9.05;;
12476;SDS011;6303;51.504;6.300;2023-05-10T09:23:06;12.50;;;9.05;;
12476;SDS011;6303;51.504;6.300;2023-05-10T09:25:34;10.43;;;8.70;;
12476;SDS011;6303;51.504;6.300;2023-05-10T09:28:03;11.82;;;9.50;;
12476;SDS011;6303;51.504;6.300;2023-05-10T09:30:33;9.52;;;8.30;;
12476;SDS011;6303;51.504;6.300;2023-05-10T09:33:00;10.32;;;8.32;;
12476;SDS011;6303;51.504;6.300;2023-05-10T09:35:28;10.40;;;9.30;;
12476;SDS011;6303;51.504;6.300;2023-05-10T09:37:57;11.55;;;9.80;;
12476;SDS011;6303;51.504;6.300;2023-05-10T09:40:27;12.25;;;10.38;;
12476;SDS011;6303;51.504;6.300;2023-05-10T09:42:55;11.15;;;9.20;;
12476;SDS011;6303;51.504;6.300;2023-05-10T09:45:26;9.20;;;8.30;;
12476;SDS011;6303;51.504;6.300;2023-05-10T09:47:54;9.55;;;8.25;;
12476;SDS011;6303;51.504;6.300;2023-05-10T09:50:21;8.88;;;7.97;;
12476;SDS011;6303;51.504;6.300;2023-05-10T09:52:49;9.63;;;8.38;;
12476;SDS011;6303;51.504;6.300;2023-05-10T09:55:18;9.68;;;8.15;;
12476;SDS011;6303;51.504;6.300;2023-05-10T09:57:47;8.88;;;8.00;;
12476;SDS011;6303;51.504;6.300;2023-05-10T10:00:18;8.63;;;7.72;;
12476;SDS011;6303;51.504;6.300;2023-05-10T10:02:48;9.23;;;7.65;;
12476;SDS011;6303;51.504;6.300;2023-05-10T10:05:21;8.32;;;7.53;;
12476;SDS011;6303;51.504;6.300;2023-05-10T10:07:55;10.00;;;7.45;;
12476;SDS011;6303;51.504;6.300;2023-05-10T10:10:23;9.98;;;8.07;;
12476;SDS011;6303;51.504;6.300;2023-05-10T10:12:51;8.52;;;7.63;;
12476;SDS011;6303;51.504;6.300;2023-05-10T10:15:18;8.15;;;7.35;;
12476;SDS011;6303;51.504;6.300;2023-05-10T10:17:47;8.25;;;7.32;;
12476;SDS011;6303;51.504;6.300;2023-05-10T10:20:16;8.07;;;7.28;;
12476;SDS011;6303;51.504;6.300;2023-05-10T10:22:43;8.48;;;7.55;;
12476;SDS011;6303;51.504;6.300;2023-05-10T10:25:11;9.65;;;7.55;;
12476;SDS011;6303;51.504;6.300;2023-05-10T10:27:43;7.82;;;6.75;;
12476;SDS011;6303;51.504;6.300;2023-05-10T10:30:27;7.57;;;6.78;;
12476;SDS011;6303;51.504;6.300;2023-05-10T10:33:01;7.82;;;7.03;;
12476;SDS011;6303;51.504;6.300;2023-05-10T10:35:44;8.68;;;7.28;;
12476;SDS011;6303;51.504;6.300;2023-05-10T10:38:12;7.75;;;6.88;;
12476;SDS011;6303;51.504;6.300;2023-05-10T10:40:39;7.32;;;6.60;;
12476;SDS011;6303;51.504;6.300;2023-05-10T10:43:23;7.35;;;6.65;;
12476;SDS011;6303;51.504;6.300;2023-05-10T10:46:09;7.05;;;6.25;;
12476;SDS011;6303;51.504;6.300;2023-05-10T10:48:39;7.05;;;6.07;;
12476;SDS011;6303;51.504;6.300;2023-05-10T10:51:06;6.68;;;6.07;;
12476;SDS011;6303;51.504;6.300;2023-05-10T10:53:34;6.95;;;6.25;;
12476;SDS011;6303;51.504;6.300;2023-05-10T10:56:06;6.82;;;6.15;;
12476;SDS011;6303;51.504;6.300;2023-05-10T10:58:35;6.80;;;6.10;;
12476;SDS011;6303;51.504;6.300;2023-05-10T11:01:13;9.40;;;6.68;;
12476;SDS011;6303;51.504;6.300;2023-05-10T11:03:54;7.13;;;6.40;;
12476;SDS011;6303;51.504;6.300;2023-05-10T11:06:36;11.63;;;7.47;;
12476;SDS011;6303;51.504;6.300;2023-05-10T11:09:05;12.18;;;7.15;;
12476;SDS011;6303;51.504;6.300;2023-05-10T11:11:34;13.25;;;6.80;;
12476;SDS011;6303;51.504;6.300;2023-05-10T11:14:02;9.48;;;6.93;;
12476;SDS011;6303;51.504;6.300;2023-05-10T11:16:40;9.57;;;6.53;;
12476;SDS011;6303;51.504;6.300;2023-05-10T11:19:10;11.60;;;6.97;;
12476;SDS011;6303;51.504;6.300;2023-05-10T11:21:44;11.18;;;6.88;;
12476;SDS011;6303;51.504;6.300;2023-05-10T11:24:13;10.50;;;6.57;;
12476;SDS011;6303;51.504;6.300;2023-05-10T11:26:41;7.82;;;6.10;;
12476;SDS011;6303;51.504;6.300;2023-05-10T11:29:09;7.90;;;5.97;;
12476;SDS011;6303;51.504;6.300;2023-05-10T11:31:41;8.38;;;6.25;;
12476;SDS011;6303;51.504;6.300;2023-05-10T11:34:11;7.63;;;6.10;;
12476;SDS011;6303;51.504;6.300;2023-05-10T11:36:41;8.05;;;6.35;;
12476;SDS011;6303;51.504;6.300;2023-05-10T11:39:08;8.35;;;5.80;;
12476;SDS011;6303;51.504;6.300;2023-05-10T11:41:36;7.97;;;5.82;;
12476;SDS011;6303;51.504;6.300;2023-05-10T11:44:03;9.48;;;6.00;;
12476;SDS011;6303;51.504;6.300;2023-05-10T11:46:31;7.47;;;5.63;;
12476;SDS011;6303;51.504;6.300;2023-05-10T11:48:59;6.53;;;5.60;;
12476;SDS011;6303;51.504;6.300;2023-05-10T11:51:32;7.53;;;5.38;;
12476;SDS011;6303;51.504;6.300;2023-05-10T11:54:00;7.80;;;5.40;;
12476;SDS011;6303;51.504;6.300;2023-05-10T11:56:32;6.35;;;5.40;;
12476;SDS011;6303;51.504;6.300;2023-05-10T11:58:59;7.22;;;5.30;;
12476;SDS011;6303;51.504;6.300;2023-05-10T12:01:28;6.93;;;4.97;;
12476;SDS011;6303;51.504;6.300;2023-05-10T12:03:56;6.10;;;5.20;;
12476;SDS011;6303;51.504;6.300;2023-05-10T12:06:26;4.95;;;4.43;;
12476;SDS011;6303;51.504;6.300;2023-05-10T12:08:55;5.78;;;4.80;;
12476;SDS011;6303;51.504;6.300;2023-05-10T12:11:24;5.20;;;4.70;;
12476;SDS011;6303;51.504;6.300;2023-05-10T12:13:52;5.80;;;4.85;;
12476;SDS011;6303;51.504;6.300;2023-05-10T12:16:20;5.57;;;5.03;;
12476;SDS011;6303;51.504;6.300;2023-05-10T12:18:48;5.50;;;5.00;;
12476;SDS011;6303;51.504;6.300;2023-05-10T12:21:16;5.25;;;4.72;;
12476;SDS011;6303;51.504;6.300;2023-05-10T12:23:44;5.20;;;4.55;;
12476;SDS011;6303;51.504;6.300;2023-05-10T12:26:13;4.80;;;4.30;;
12476;SDS011;6303;51.504;6.300;2023-05-10T12:28:40;5.45;;;4.57;;
12476;SDS011;6303;51.504;6.300;2023-05-10T12:31:08;5.18;;;4.68;;
12476;SDS011;6303;51.504;6.300;2023-05-10T12:33:35;5.03;;;4.53;;
12476;SDS011;6303;51.504;6.300;2023-05-10T12:36:04;5.70;;;4.32;;
12476;SDS011;6303;51.504;6.300;2023-05-10T12:38:32;6.68;;;4.63;;
12476;SDS011;6303;51.504;6.300;2023-05-10T12:41:01;5.22;;;4.75;;
12476;SDS011;6303;51.504;6.300;2023-05-10T12:43:31;5.63;;;4.60;;
12476;SDS011;6303;51.504;6.300;2023-05-10T12:46:03;5.55;;;4.97;;
12476;SDS011;6303;51.504;6.300;2023-05-10T12:48:31;7.63;;;5.13;;
12476;SDS011;6303;51.504;6.300;2023-05-10T12:50:59;5.75;;;5.30;;
12476;SDS011;6303;51.504;6.300;2023-05-10T12:53:26;5.85;;;5.28;;
12476;SDS011;6303;51.504;6.300;2023-05-10T12:55:53;6.03;;;5.22;;
12476;SDS011;6303;51.504;6.300;2023-05-10T12:58:20;5.88;;;5.28;;
12476;SDS011;6303;51.504;6.300;2023-05-10T13:00:50;5.03;;;4.63;;
12476;SDS011;6303;51.504;6.300;2023-05-10T13:03:18;5.63;;;4.88;;
12476;SDS011;6303;51.504;6.300;2023-05-10T13:05:45;5.68;;;5.00;;
12476;SDS011;6303;51.504;6.300;2023-05-10T13:08:12;5.43;;;4.90;;
12476;SDS011;6303;51.504;6.300;2023-05-10T13:10:39;6.10;;;5.57;;
12476;SDS011;6303;51.504;6.300;2023-05-10T13:13:06;6.20;;;5.60;;
12476;SDS011;6303;51.504;6.300;2023-05-10T13:15:33;6.25;;;5.65;;
12476;SDS011;6303;51.504;6.300;2023-05-10T13:18:02;6.45;;;5.82;;
12476;SDS011;6303;51.504;6.300;2023-05-10T13:20:29;6.20;;;5.53;;
12476;SDS011;6303;51.504;6.300;2023-05-10T13:22:56;6.05;;;5.45;;
12476;SDS011;6303;51.504;6.300;2023-05-10T13:25:23;6.20;;;5.60;;
12476;SDS011;6303;51.504;6.300;2023-05-10T13:27:50;6.30;;;5.70;;
12476;SDS011;6303;51.504;6.300;2023-05-10T13:30:17;7.07;;;5.75;;
12476;SDS011;6303;51.504;6.300;2023-05-10T13:32:45;7.55;;;6.53;;
12476;SDS011;6303;51.504;6.300;2023-05-10T13:35:14;9.77;;;7.00;;
12476;SDS011;6303;51.504;6.300;2023-05-10T13:37:41;7.15;;;6.07;;
12476;SDS011;6303;51.504;6.300;2023-05-10T13:40:08;7.20;;;6.60;;
12476;SDS011;6303;51.504;6.300;2023-05-10T13:42:35;6.63;;;5.75;;
12476;SDS011;6303;51.504;6.300;2023-05-10T13:45:02;7.72;;;6.93;;
12476;SDS011;6303;51.504;6.300;2023-05-10T13:47:30;7.70;;;6.93;;
12476;SDS011;6303;51.504;6.300;2023-05-10T13:49:57;7.85;;;7.10;;
12476;SDS011;6303;51.504;6.300;2023-05-10T13:52:26;10.18;;;9.10;;
12476;SDS011;6303;51.504;6.300;2023-05-10T13:54:53;11.07;;;8.65;;
12476;SDS011;6303;51.504;6.300;2023-05-10T13:57:21;7.78;;;7.07;;
12476;SDS011;6303;51.504;6.300;2023-05-10T13:59:49;6.90;;;6.22;;
12476;SDS011;6303;51.504;6.300;2023-05-10T14:02:16;6.28;;;5.50;;
12476;SDS011;6303;51.504;6.300;2023-05-10T14:04:43;6.28;;;5.13;;
12476;SDS011;6303;51.504;6.300;2023-05-10T14:07:10;6.70;;;5.05;;
12476;SDS011;6303;51.504;6.300;2023-05-10T14:09:38;5.25;;;4.78;;
12476;SDS011;6303;51.504;6.300;2023-05-10T14:12:05;6.28;;;4.88;;
12476;SDS011;6303;51.504;6.300;2023-05-10T14:14:32;5.55;;;4.70;;
12476;SDS011;6303;51.504;6.300;2023-05-10T14:16:59;5.63;;;4.53;;
12476;SDS011;6303;51.504;6.300;2023-05-10T14:19:26;5.38;;;4.22;;
12476;SDS011;6303;51.504;6.300;2023-05-10T14:21:55;4.45;;;4.05;;
12476;SDS011;6303;51.504;6.300;2023-05-10T14:24:22;4.75;;;4.28;;
12476;SDS011;6303;51.504;6.300;2023-05-10T14:26:51;6.00;;;4.40;;
12476;SDS011;6303;51.504;6.300;2023-05-10T14:29:18;4.63;;;3.83;;
12476;SDS011;6303;51.504;6.300;2023-05-10T14:31:46;4.78;;;4.35;;
12476;SDS011;6303;51.504;6.300;2023-05-10T14:34:13;4.53;;;4.13;;
12476;SDS011;6303;51.504;6.300;2023-05-10T14:36:40;4.38;;;3.80;;
12476;SDS011;6303;51.504;6.300;2023-05-10T14:39:07;4.20;;;3.78;;
12476;SDS011;6303;51.504;6.300;2023-05-10T14:41:35;5.30;;;4.47;;
12476;SDS011;6303;51.504;6.300;2023-05-10T14:44:04;4.00;;;3.60;;
12476;SDS011;6303;51.504;6.300;2023-05-10T14:46:31;3.60;;;3.30;;
12476;SDS011;6303;51.504;6.300;2023-05-10T14:48:59;5.10;;;3.65;;
12476;SDS011;6303;51.504;6.300;2023-05-10T14:51:26;3.88;;;3.38;;
12476;SDS011;6303;51.504;6.300;2023-05-10T14:53:53;3.33;;;3.13;;
12476;SDS011;6303;51.504;6.300;2023-05-10T14:56:20;3.50;;;3.22;;
12476;SDS011;6303;51.504;6.300;2023-05-10T14:58:47;3.38;;;3.00;;
12476;SDS011;6303;51.504;6.300;2023-05-10T15:01:17;3.85;;;3.55;;
12476;SDS011;6303;51.504;6.300;2023-05-10T15:03:44;3.95;;;3.38;;